createdAt,value
2018-04-17T00:00:11.883Z,5.23
2018-04-17T00:02:44.226Z,5.20
2018-04-17T00:05:16.315Z,4.77
2018-04-17T00:07:48.456Z,5.00
2018-04-17T00:10:19.879Z,5.20
2018-04-17T00:12:51.262Z,4.93
2018-04-17T00:15:22.344Z,4.70
2018-04-17T00:17:53.714Z,5.50
2018-04-17T00:20:25.438Z,4.77
2018-04-17T00:22:56.643Z,4.47
2018-04-17T00:25:28.056Z,5.10
2018-04-17T00:27:59.418Z,4.97
2018-04-17T00:30:30.799Z,5.13
2018-04-17T00:33:02.197Z,5.53
2018-04-17T00:35:33.527Z,5.30
2018-04-17T00:38:05.646Z,4.97
2018-04-17T00:40:36.974Z,4.33
2018-04-17T00:43:08.340Z,5.07
2018-04-17T00:45:39.758Z,5.57
2018-04-17T00:48:11.160Z,5.23
2018-04-17T00:50:42.555Z,4.83
2018-04-17T00:53:31.466Z,5.77
2018-04-17T00:56:02.847Z,8.30
2018-04-17T00:58:35.013Z,8.83
2018-04-17T01:01:07.320Z,9.67
2018-04-17T01:03:39.497Z,8.37
2018-04-17T01:06:11.900Z,6.17
2018-04-17T01:08:44.105Z,4.90
2018-04-17T01:11:16.365Z,5.93
2018-04-17T01:13:48.478Z,5.57
2018-04-17T01:16:19.902Z,8.67
2018-04-17T01:18:51.530Z,6.60
2018-04-17T01:21:22.919Z,7.23
2018-04-17T01:23:54.254Z,6.80
2018-04-17T01:26:27.061Z,7.13
2018-04-17T01:28:59.234Z,6.87
2018-04-17T01:31:31.573Z,7.17
2018-04-17T01:34:03.731Z,6.63
2018-04-17T01:36:35.840Z,7.63
2018-04-17T01:39:06.554Z,6.20
2018-04-17T01:41:38.773Z,5.87
2018-04-17T01:44:10.046Z,5.30
2018-04-17T01:46:42.282Z,5.07
2018-04-17T01:49:14.695Z,6.03
2018-04-17T01:51:46.839Z,5.37
2018-04-17T01:54:18.192Z,5.60
2018-04-17T01:56:49.233Z,5.83
2018-04-17T01:59:21.362Z,5.30
2018-04-17T02:01:52.734Z,5.77
2018-04-17T02:04:24.058Z,5.70
2018-04-17T02:06:55.704Z,4.97
2018-04-17T02:09:27.817Z,6.27
2018-04-17T02:11:59.197Z,5.50
2018-04-17T02:14:30.542Z,5.80
2018-04-17T02:17:01.891Z,5.83
2018-04-17T02:19:33.224Z,5.87
2018-04-17T02:22:04.587Z,5.17
2018-04-17T02:24:35.917Z,5.63
2018-04-17T02:29:46.016Z,6.17
2018-04-17T02:32:17.882Z,6.10
2018-04-17T02:34:50.017Z,5.90
2018-04-17T02:37:21.337Z,6.00
2018-04-17T02:39:52.710Z,5.70
2018-04-17T02:42:24.063Z,6.03
2018-04-17T02:44:55.552Z,6.30
2018-04-17T02:47:28.047Z,6.30
2018-04-17T02:50:00.407Z,7.07
2018-04-17T02:52:31.950Z,5.87
2018-04-17T02:55:03.530Z,5.93
2018-04-17T02:57:35.671Z,5.93
2018-04-17T03:00:07.109Z,5.67
2018-04-17T03:02:38.429Z,5.90
2018-04-17T03:05:09.797Z,6.23
2018-04-17T03:07:41.942Z,5.70
2018-04-17T03:10:13.143Z,5.83
2018-04-17T03:12:44.559Z,6.17
2018-04-17T03:15:15.958Z,5.70
2018-04-17T03:17:47.286Z,5.80
2018-04-17T03:20:18.485Z,5.93
2018-04-17T03:22:49.689Z,6.27
2018-04-17T03:25:21.137Z,5.53
2018-04-17T03:27:53.429Z,5.67
2018-04-17T03:30:25.123Z,5.90
2018-04-17T03:32:57.226Z,5.30
2018-04-17T03:35:29.163Z,5.40
2018-04-17T03:38:00.527Z,5.80
2018-04-17T03:40:32.694Z,5.47
2018-04-17T03:43:04.101Z,5.77
2018-04-17T03:45:36.181Z,5.40
2018-04-17T03:48:07.709Z,6.20
2018-04-17T03:50:39.791Z,5.47
2018-04-17T03:53:11.140Z,5.80
2018-04-17T03:55:44.165Z,5.93
2018-04-17T03:58:15.605Z,5.93
2018-04-17T04:00:47.194Z,5.87
2018-04-17T04:03:20.159Z,5.40
2018-04-17T04:08:28.702Z,5.93
2018-04-17T04:11:00.070Z,5.90
2018-04-17T04:13:31.417Z,6.50
2018-04-17T04:16:02.759Z,5.87
2018-04-17T04:18:51.706Z,6.27
2018-04-17T04:21:39.921Z,6.67
2018-04-17T04:27:39.477Z,7.17
2018-04-17T04:30:10.658Z,6.87
2018-04-17T04:32:42.018Z,7.43
2018-04-17T04:35:14.113Z,7.40
2018-04-17T04:37:45.558Z,7.73
2018-04-17T04:40:16.885Z,6.93
2018-04-17T04:42:49.038Z,7.63
2018-04-17T04:45:20.571Z,7.13
2018-04-17T04:47:51.923Z,7.63
2018-04-17T04:50:23.281Z,7.57
2018-04-17T04:52:54.670Z,7.13
2018-04-17T04:55:26.777Z,7.27
2018-04-17T04:57:58.266Z,8.00
2018-04-17T05:00:29.592Z,8.03
2018-04-17T05:03:01.764Z,8.27
2018-04-17T05:05:33.173Z,8.40
2018-04-17T05:08:05.353Z,7.80
2018-04-17T05:10:36.756Z,7.90
2018-04-17T05:13:08.397Z,6.50
2018-04-17T05:15:39.802Z,8.63
2018-04-17T05:18:11.306Z,7.60
2018-04-17T05:20:42.804Z,7.60
2018-04-17T05:23:14.261Z,7.40
2018-04-17T05:25:45.429Z,7.00
2018-04-17T05:28:17.809Z,7.67
2018-04-17T05:30:49.178Z,6.70
2018-04-17T05:33:20.746Z,7.63
2018-04-17T05:35:52.880Z,7.83
2018-04-17T05:38:24.350Z,7.47
2018-04-17T05:40:55.909Z,8.17
2018-04-17T05:43:27.701Z,9.07
2018-04-17T05:45:59.054Z,8.07
2018-04-17T05:48:31.221Z,7.33
2018-04-17T05:51:03.337Z,7.73
2018-04-17T05:53:34.810Z,10.37
2018-04-17T05:56:06.674Z,8.60
2018-04-17T05:58:37.866Z,8.13
2018-04-17T06:01:09.056Z,8.27
2018-04-17T06:03:40.453Z,11.07
2018-04-17T06:06:11.794Z,8.87
2018-04-17T06:08:44.100Z,9.30
2018-04-17T06:11:16.405Z,8.30
2018-04-17T06:13:48.695Z,9.17
2018-04-17T06:16:20.005Z,8.67
2018-04-17T06:18:51.373Z,10.03
2018-04-17T06:21:23.701Z,9.43
2018-04-17T06:23:55.152Z,9.10
2018-04-17T06:26:27.274Z,9.50
2018-04-17T06:31:36.509Z,9.27
2018-04-17T06:34:07.916Z,8.80
2018-04-17T06:36:39.449Z,9.37
2018-04-17T06:39:10.849Z,8.50
2018-04-17T06:41:42.203Z,9.63
2018-04-17T06:44:13.771Z,9.13
2018-04-17T06:46:45.234Z,9.20
2018-04-17T06:49:18.149Z,9.37
2018-04-17T06:51:50.298Z,9.87
2018-04-17T06:54:22.147Z,9.53
2018-04-17T06:56:53.602Z,9.77
2018-04-17T06:59:25.258Z,10.67
2018-04-17T07:01:58.173Z,9.73
2018-04-17T07:04:30.294Z,9.83
2018-04-17T07:07:01.951Z,9.63
2018-04-17T07:09:33.348Z,11.30
2018-04-17T07:12:04.989Z,10.43
2018-04-17T07:14:36.357Z,10.87
2018-04-17T07:17:08.511Z,9.83
2018-04-17T07:19:39.953Z,9.53
2018-04-17T07:22:12.153Z,10.60
2018-04-17T07:24:44.157Z,9.97
2018-04-17T07:27:16.406Z,9.47
2018-04-17T07:29:48.585Z,9.47
2018-04-17T07:32:19.973Z,9.57
2018-04-17T07:34:51.389Z,9.17
2018-04-17T07:37:22.781Z,8.87
2018-04-17T07:39:54.168Z,8.53
2018-04-17T07:42:25.629Z,9.00
2018-04-17T07:44:57.042Z,9.50
2018-04-17T07:47:30.538Z,8.87
2018-04-17T07:50:02.187Z,8.87
2018-04-17T07:52:33.593Z,8.60
2018-04-17T07:55:04.932Z,8.57
2018-04-17T07:57:36.335Z,10.23
2018-04-17T08:00:07.746Z,9.40
2018-04-17T08:02:39.109Z,9.30
2018-04-17T08:05:10.522Z,9.63
2018-04-17T08:07:41.965Z,8.73
2018-04-17T08:10:13.550Z,8.93
2018-04-17T08:12:45.052Z,9.23
2018-04-17T08:15:16.462Z,8.60
2018-04-17T08:17:47.868Z,8.83
2018-04-17T08:20:19.230Z,8.07
2018-04-17T08:22:50.647Z,8.57
2018-04-17T08:25:21.986Z,9.40
2018-04-17T08:27:53.377Z,8.97
2018-04-17T08:30:24.987Z,8.50
2018-04-17T08:32:56.352Z,9.57
2018-04-17T08:35:28.049Z,9.63
2018-04-17T08:38:00.454Z,9.93
2018-04-17T08:40:31.811Z,9.77
2018-04-17T08:43:03.307Z,9.87
2018-04-17T08:45:34.606Z,9.10
2018-04-17T08:48:05.972Z,8.23
2018-04-17T08:50:37.421Z,8.60
2018-04-17T08:53:08.953Z,8.80
2018-04-17T08:55:41.369Z,9.87
2018-04-17T08:58:14.257Z,11.70
2018-04-17T09:00:45.799Z,10.87
2018-04-17T09:03:16.983Z,10.77
2018-04-17T09:05:48.302Z,10.47
2018-04-17T09:08:19.760Z,10.83
2018-04-17T09:10:52.733Z,12.70
2018-04-17T09:13:24.122Z,12.17
2018-04-17T09:15:56.327Z,12.87
2018-04-17T09:18:27.957Z,11.60
2018-04-17T09:21:00.584Z,12.03
2018-04-17T09:23:31.746Z,11.87
2018-04-17T09:26:03.488Z,10.47
2018-04-17T09:28:34.853Z,11.77
2018-04-17T09:31:06.317Z,10.87
2018-04-17T09:33:37.770Z,12.33
2018-04-17T09:36:09.486Z,11.17
2018-04-17T09:38:41.084Z,9.83
2018-04-17T09:41:12.526Z,10.40
2018-04-17T09:43:43.966Z,11.13
2018-04-17T09:46:15.336Z,10.37
2018-04-17T09:48:46.734Z,10.50
2018-04-17T09:51:18.160Z,10.97
2018-04-17T09:53:50.609Z,10.40
2018-04-17T09:56:21.959Z,9.73
2018-04-17T09:58:53.625Z,10.13
2018-04-17T10:01:25.045Z,9.23
2018-04-17T10:03:56.466Z,9.33
2018-04-17T10:06:28.547Z,10.60
2018-04-17T10:09:00.232Z,12.37
2018-04-17T10:11:32.167Z,11.87
2018-04-17T10:14:03.542Z,10.33
2018-04-17T10:16:34.903Z,11.87
2018-04-17T10:19:06.373Z,11.50
2018-04-17T10:21:38.492Z,12.23
2018-04-17T10:24:10.654Z,11.77
2018-04-17T10:26:42.076Z,11.43
2018-04-17T10:29:14.315Z,11.23
2018-04-17T10:31:47.514Z,11.17
2018-04-17T10:34:19.683Z,10.23
2018-04-17T10:36:51.158Z,12.90
2018-04-17T10:39:22.534Z,13.50
2018-04-17T10:41:54.255Z,13.30
2018-04-17T10:44:26.730Z,13.13
2018-04-17T10:46:58.138Z,14.67
2018-04-17T10:49:29.524Z,11.73
2018-04-17T10:52:00.604Z,12.97
2018-04-17T10:54:33.206Z,11.27
2018-04-17T10:57:05.643Z,11.60
2018-04-17T10:59:37.319Z,14.10
2018-04-17T11:02:09.428Z,14.43
2018-04-17T11:04:41.616Z,13.37
2018-04-17T11:07:13.087Z,14.23
2018-04-17T11:09:44.764Z,14.60
2018-04-17T11:12:16.150Z,12.73
2018-04-17T11:14:47.597Z,12.70
2018-04-17T11:17:19.042Z,12.10
2018-04-17T11:19:50.638Z,13.10
2018-04-17T11:22:22.573Z,12.82
2018-04-17T11:24:54.540Z,12.02
2018-04-17T11:27:26.413Z,12.15
2018-04-17T11:29:58.117Z,11.43
2018-04-17T11:32:30.595Z,12.25
2018-04-17T11:35:03.382Z,11.07
2018-04-17T11:37:35.349Z,12.27
2018-04-17T11:40:07.579Z,11.25
2018-04-17T11:42:40.341Z,9.45
2018-04-17T11:45:12.543Z,9.60
2018-04-17T11:47:44.756Z,10.05
2018-04-17T11:50:17.049Z,9.88
2018-04-17T11:52:50.581Z,9.75
2018-04-17T11:55:22.549Z,8.15
2018-04-17T11:57:54.790Z,10.98
2018-04-17T12:00:26.726Z,10.02
2018-04-17T12:02:59.695Z,9.25
2018-04-17T12:05:32.471Z,9.23
2018-04-17T12:08:04.390Z,8.48
2018-04-17T12:10:36.899Z,8.75
2018-04-17T12:13:08.717Z,8.73
2018-04-17T12:15:40.756Z,8.98
2018-04-17T12:18:12.929Z,9.77
2018-04-17T12:20:44.912Z,8.93
2018-04-17T12:23:16.933Z,9.30
2018-04-17T12:25:49.806Z,11.20
2018-04-17T12:28:21.954Z,10.00
2018-04-17T12:30:53.878Z,9.23
2018-04-17T12:33:26.714Z,8.25
2018-04-17T12:35:58.709Z,7.93
2018-04-17T12:38:30.673Z,8.50
2018-04-17T12:41:02.900Z,7.90
2018-04-17T12:43:35.001Z,8.13
2018-04-17T12:46:07.069Z,8.70
2018-04-17T12:48:39.104Z,10.15
2018-04-17T12:51:11.336Z,11.60
2018-04-17T12:53:43.686Z,9.93
2018-04-17T12:56:16.471Z,9.85
2018-04-17T12:58:48.446Z,10.90
2018-04-17T13:01:20.378Z,11.15
2018-04-17T13:03:52.352Z,9.63
2018-04-17T13:06:24.367Z,9.82
2018-04-17T13:08:57.178Z,9.10
2018-04-17T13:11:29.386Z,11.18
2018-04-17T13:14:02.153Z,10.60
2018-04-17T13:16:34.114Z,9.60
2018-04-17T13:19:06.060Z,11.40
2018-04-17T13:21:38.082Z,10.80
2018-04-17T13:24:10.621Z,8.77
2018-04-17T13:26:42.768Z,9.98
2018-04-17T13:29:14.751Z,9.00
2018-04-17T13:34:24.975Z,10.70
2018-04-17T13:36:57.110Z,13.25
2018-04-17T13:39:28.513Z,11.67
2018-04-17T13:42:00.011Z,12.10
2018-04-17T13:44:32.109Z,12.57
2018-04-17T13:47:03.546Z,10.67
2018-04-17T13:49:34.885Z,11.30
2018-04-17T13:52:06.133Z,11.33
2018-04-17T13:54:37.767Z,12.37
2018-04-17T13:57:09.411Z,13.03
2018-04-17T13:59:41.635Z,14.50
2018-04-17T14:02:13.230Z,13.10
2018-04-17T14:04:46.766Z,13.07
2018-04-17T14:07:18.567Z,12.67
2018-04-17T14:09:50.220Z,13.40
2018-04-17T14:12:22.490Z,12.03
2018-04-17T14:14:53.947Z,12.47
2018-04-17T14:17:25.481Z,11.40
2018-04-17T14:19:57.790Z,11.93
2018-04-17T14:22:29.135Z,11.50
2018-04-17T14:25:00.681Z,11.70
2018-04-17T14:27:33.148Z,12.13
2018-04-17T14:30:04.367Z,11.83
2018-04-17T14:32:35.758Z,12.90
2018-04-17T14:35:07.217Z,12.93
2018-04-17T14:37:39.809Z,13.27
2018-04-17T14:40:12.698Z,13.10
2018-04-17T14:42:44.322Z,12.73
2018-04-17T14:45:15.793Z,13.43
2018-04-17T14:47:48.296Z,13.37
2018-04-17T14:50:19.712Z,11.73
2018-04-17T14:52:51.105Z,12.93
2018-04-17T14:55:22.513Z,12.87
2018-04-17T14:57:53.597Z,13.57
2018-04-17T15:00:25.770Z,10.73
2018-04-17T15:02:57.413Z,10.67
2018-04-17T15:05:29.582Z,10.50
2018-04-17T15:08:01.812Z,11.70
2018-04-17T15:10:33.378Z,12.37
2018-04-17T15:13:04.795Z,13.10
2018-04-17T15:15:36.666Z,12.70
2018-04-17T15:18:08.217Z,10.33
2018-04-17T15:20:39.624Z,14.73
2018-04-17T15:23:11.061Z,12.27
2018-04-17T15:25:42.834Z,12.13
2018-04-17T15:28:15.113Z,11.30
2018-04-17T15:30:47.370Z,12.17
2018-04-17T15:33:18.756Z,11.00
2018-04-17T15:35:50.134Z,11.97
2018-04-17T15:38:21.653Z,14.33
2018-04-17T15:40:53.380Z,14.53
2018-04-17T15:43:25.033Z,14.40
2018-04-17T15:45:56.567Z,12.10
2018-04-17T15:48:27.939Z,13.57
2018-04-17T15:50:59.347Z,14.03
2018-04-17T15:53:30.706Z,12.77
2018-04-17T15:56:02.131Z,13.27
2018-04-17T15:58:33.526Z,15.03
2018-04-17T16:01:05.254Z,12.27
2018-04-17T16:03:36.619Z,13.60
2018-04-17T16:06:08.957Z,12.37
2018-04-17T16:08:40.770Z,13.63
2018-04-17T16:11:12.323Z,14.63
2018-04-17T16:13:44.806Z,14.03
2018-04-17T16:16:16.065Z,14.83
2018-04-17T16:18:48.259Z,13.97
2018-04-17T16:21:20.930Z,13.80
2018-04-17T16:23:52.545Z,13.00
2018-04-17T16:26:24.053Z,12.40
2018-04-17T16:28:55.738Z,13.13
2018-04-17T16:31:27.135Z,13.60
2018-04-17T16:33:58.559Z,12.37
2018-04-17T16:36:30.084Z,10.20
2018-04-17T16:39:03.241Z,10.93
2018-04-17T16:41:35.178Z,11.53
2018-04-17T16:44:06.363Z,10.33
2018-04-17T16:46:38.579Z,9.77
2018-04-17T16:49:10.102Z,10.23
2018-04-17T16:51:41.466Z,10.03
2018-04-17T16:54:13.678Z,9.73
2018-04-17T16:56:45.094Z,10.30
2018-04-17T16:59:16.519Z,9.33
2018-04-17T17:01:47.743Z,9.27
2018-04-17T17:04:21.146Z,7.77
2018-04-17T17:06:53.272Z,7.27
2018-04-17T17:09:24.725Z,7.27
2018-04-17T17:11:56.226Z,8.37
2018-04-17T17:14:29.246Z,7.43
2018-04-17T17:17:00.577Z,6.70
2018-04-17T17:19:32.903Z,6.83
2018-04-17T17:22:04.618Z,6.67
2018-04-17T17:24:35.968Z,6.77
2018-04-17T17:27:07.222Z,6.10
2018-04-17T17:29:38.983Z,6.87
2018-04-17T17:32:10.017Z,7.27
2018-04-17T17:34:41.366Z,7.07
2018-04-17T17:37:12.960Z,6.87
2018-04-17T17:39:44.321Z,6.23
2018-04-17T17:42:17.337Z,5.27
2018-04-17T17:44:48.719Z,6.33
2018-04-17T17:47:20.105Z,6.30
2018-04-17T17:49:51.627Z,5.60
2018-04-17T17:52:22.982Z,5.33
2018-04-17T17:54:54.529Z,5.10
2018-04-17T17:57:26.060Z,6.57
2018-04-17T17:59:57.927Z,6.90
2018-04-17T18:02:29.387Z,6.00
2018-04-17T18:05:00.771Z,6.60
2018-04-17T18:07:33.190Z,6.33
2018-04-17T18:10:05.401Z,5.63
2018-04-17T18:12:36.765Z,5.80
2018-04-17T18:15:08.186Z,6.47
2018-04-17T18:17:39.642Z,6.00
2018-04-17T18:20:11.015Z,5.33
2018-04-17T18:22:42.445Z,6.13
2018-04-17T18:25:13.856Z,5.97
2018-04-17T18:27:45.266Z,6.90
2018-04-17T18:30:16.744Z,8.40
2018-04-17T18:32:48.885Z,8.33
2018-04-17T18:35:20.430Z,6.80
2018-04-17T18:37:52.198Z,6.90
2018-04-17T18:40:24.534Z,6.23
2018-04-17T18:42:56.004Z,5.20
2018-04-17T18:45:27.449Z,5.60
2018-04-17T18:47:59.947Z,5.37
2018-04-17T18:50:31.294Z,5.43
2018-04-17T18:53:02.718Z,6.30
2018-04-17T18:55:34.344Z,6.80
2018-04-17T18:58:05.819Z,6.67
2018-04-17T19:00:37.327Z,5.80
2018-04-17T19:03:08.689Z,5.87
2018-04-17T19:05:40.111Z,5.77
2018-04-17T19:08:11.491Z,5.60
2018-04-17T19:10:44.422Z,5.63
2018-04-17T19:13:16.609Z,6.07
2018-04-17T19:15:48.011Z,6.17
2018-04-17T19:18:19.449Z,5.70
2018-04-17T19:20:50.839Z,6.07
2018-04-17T19:23:23.007Z,6.47
2018-04-17T19:25:55.230Z,6.17
2018-04-17T19:28:26.598Z,6.37
2018-04-17T19:30:58.181Z,6.40
2018-04-17T19:33:29.444Z,7.10
2018-04-17T19:36:01.535Z,6.27
2018-04-17T19:38:32.961Z,6.37
2018-04-17T19:41:06.895Z,6.07
2018-04-17T19:43:38.275Z,6.60
2018-04-17T19:46:09.758Z,6.27
2018-04-17T19:48:41.961Z,7.10
2018-04-17T19:51:13.446Z,6.37
2018-04-17T19:53:45.619Z,6.27
2018-04-17T19:56:17.031Z,7.00
2018-04-17T19:58:48.437Z,6.73
2018-04-17T20:01:20.321Z,7.23
2018-04-17T20:03:52.137Z,6.97
2018-04-17T20:06:23.199Z,6.93
2018-04-17T20:08:54.537Z,7.20
2018-04-17T20:11:26.144Z,8.33
2018-04-17T20:13:57.593Z,7.87
2018-04-17T20:16:29.737Z,7.30
2018-04-17T20:19:01.285Z,7.20
2018-04-17T20:21:33.446Z,8.10
2018-04-17T20:24:04.962Z,6.73
2018-04-17T20:26:36.353Z,7.43
2018-04-17T20:29:07.690Z,7.43
2018-04-17T20:31:39.142Z,7.20
2018-04-17T20:34:11.030Z,7.47
2018-04-17T20:36:43.174Z,7.33
2018-04-17T20:39:14.330Z,7.33
2018-04-17T20:41:46.296Z,7.47
2018-04-17T20:44:17.423Z,7.53
2018-04-17T20:46:48.591Z,8.47
2018-04-17T20:49:19.717Z,7.90
2018-04-17T20:51:50.884Z,7.90
2018-04-17T20:54:22.048Z,7.83
2018-04-17T20:56:53.267Z,7.73
2018-04-17T20:59:25.518Z,8.43
2018-04-17T21:01:56.913Z,8.07
2018-04-17T21:04:28.379Z,8.00
2018-04-17T21:06:59.837Z,8.10
2018-04-17T21:09:31.404Z,8.80
2018-04-17T21:12:02.952Z,7.87
2018-04-17T21:14:34.613Z,8.50
2018-04-17T21:17:05.943Z,8.40
2018-04-17T21:19:37.469Z,8.60
2018-04-17T21:22:09.199Z,8.87
2018-04-17T21:24:40.517Z,9.13
2018-04-17T21:27:11.959Z,8.53
2018-04-17T21:29:44.288Z,9.57
2018-04-17T21:32:17.473Z,9.50
2018-04-17T21:34:48.907Z,9.57
2018-04-17T21:37:20.370Z,9.50
2018-04-17T21:39:51.776Z,10.13
2018-04-17T21:42:23.425Z,10.43
2018-04-17T21:44:54.901Z,9.93
2018-04-17T21:47:27.056Z,10.23
2018-04-17T21:49:58.426Z,10.57
2018-04-17T21:52:29.851Z,10.47
2018-04-17T21:55:02.005Z,10.80
2018-04-17T21:57:34.508Z,10.17
2018-04-17T22:00:04.858Z,10.73
2018-04-17T22:02:36.384Z,9.47
2018-04-17T22:05:07.742Z,10.53
2018-04-17T22:07:39.136Z,9.83
2018-04-17T22:10:11.297Z,10.10
2018-04-17T22:12:42.691Z,9.97
2018-04-17T22:15:14.457Z,10.07
2018-04-17T22:17:45.802Z,10.50
2018-04-17T22:20:17.057Z,10.03
2018-04-17T22:22:48.215Z,11.40
2018-04-17T22:25:19.616Z,10.73
2018-04-17T22:27:50.890Z,10.90
2018-04-17T22:30:22.322Z,10.60
2018-04-17T22:32:54.489Z,10.73
2018-04-17T22:35:26.710Z,11.30
2018-04-17T22:37:58.101Z,11.27
2018-04-17T22:40:30.049Z,10.80
2018-04-17T22:43:01.200Z,10.23
2018-04-17T22:45:32.225Z,9.83
2018-04-17T22:48:03.399Z,10.13
2018-04-17T22:50:34.433Z,10.97
2018-04-17T22:53:05.594Z,10.60
2018-04-17T22:55:37.679Z,11.60
2018-04-17T22:58:08.842Z,11.00
2018-04-17T23:00:40.316Z,11.10
2018-04-17T23:03:11.738Z,11.23
2018-04-17T23:05:43.105Z,11.33
2018-04-17T23:08:15.305Z,10.87
2018-04-17T23:10:47.021Z,10.63
2018-04-17T23:13:18.409Z,11.47
2018-04-17T23:15:49.833Z,11.40
2018-04-17T23:18:21.542Z,11.67
2018-04-17T23:20:53.732Z,11.40
2018-04-17T23:23:25.865Z,10.40
2018-04-17T23:25:58.027Z,11.83
2018-04-17T23:28:29.376Z,11.10
2018-04-17T23:31:00.952Z,10.70
2018-04-17T23:33:32.340Z,10.33
2018-04-17T23:36:03.380Z,11.20
2018-04-17T23:38:34.862Z,10.93
2018-04-17T23:41:06.203Z,10.87
2018-04-17T23:43:37.608Z,12.00
2018-04-17T23:46:09.077Z,11.27
2018-04-17T23:48:40.549Z,11.70
2018-04-17T23:51:11.930Z,12.77
2018-04-17T23:53:43.342Z,12.47
2018-04-17T23:56:14.731Z,11.10
2018-04-17T23:58:46.103Z,11.57
